Warning: Javascript must be enabled to use all the features on this page!


Page Loading - Please Wait...

Click to hideNews Bulletins

USGS 02100500 DEEP RIVER AT RAMSEUR, NC

PROVISIONAL DATA SUBJECT TO REVISION

Click to hidestation-specific text
This station managed by the South Atlantic WSC Raleigh Field Office.

Available Parameters Period of Record
All 2 Available Parameters for this site
  
00060 Discharge(Max.,Min.,Mean) 1923-04-01  2017-12-15
00065 Gage height(Max.,Min.,Mean) 1995-10-01  2017-12-15

Graph
Graph w/ stats
Graph w/ meas
Graph w/ (up to 3) parms
Table
Tab-separated
Days  (53)
 

  -- or --
Begin date
 

End date
 

Summary of all available data for this site
Instantaneous-data availability statement






Date




Dis-
charge,
ft3/s,
(Maximum)




Dis-
charge,
ft3/s,
(Minimum)




Dis-
charge,
ft3/s,
(Mean)
12/01/2015 1,020A  423A  889A  
12/02/2015 965A  912A  940A  
12/03/2015 919A  685A  813A  
12/04/2015 685A  486A  569A  
12/05/2015 486A  357A  412A  
12/06/2015 357A  286A  320A  
12/07/2015 286A  250A  269A  
12/08/2015 250A  205A  236A  
12/09/2015 220A  184A  204A  
12/10/2015 202A  181A  191A  
12/11/2015 181A  159A  171A  
12/12/2015 167A  146A  160A  
12/13/2015 151A  138A  142A  
12/14/2015 167A  148A  158A  
12/15/2015 170A  146A  157A  
12/16/2015 187A  146A  164A  
12/17/2015 2,480A  178A  909A  
12/18/2015 2,250A  1,250A  1,720A  
12/19/2015 1,260A  691A  911A  
12/20/2015 691A  461A  563A  
12/21/2015 461A  357A  404A  
12/22/2015 10,000A  349A  4,800A  
12/23/2015 8,450A  2,370A  4,580A  
12/24/2015 8,170A  4,390A  6,410A  
12/25/2015 4,390A  2,100A  3,140A  
12/26/2015 2,100A  1,210A  1,590A  
12/27/2015 1,210A  795A  976A  
12/28/2015 971A  663A  773A  
12/29/2015 1,870A  971A  1,520A  
12/30/2015 21,100A  1,320A  8,770A  
12/31/2015 11,400A  2,660A  5,130A  
01/01/2016 2,660A  1,440A  1,930A  
01/02/2016 1,440A  951A  1,170A  
01/03/2016 951A  742A  827A  
01/04/2016 742A  580A  642A  
01/05/2016 580A  433A  495A  
01/06/2016 442A  313A  401A  
01/07/2016 419A  321A  374A  
01/08/2016 361A  313A  342A  
01/09/2016 341A  317A  327A  
01/10/2016 452A  297A  337A  
01/11/2016 456A  379A  419A  
01/12/2016 379A  313A  353A  
01/13/2016 349A  305A  323A  
01/14/2016 313A  196A  265A  
01/15/2016 349A  196A  272A  
01/16/2016 831A  349A  711A  
01/17/2016 658A  506A  579A  
01/18/2016 506A  461A  483A  
01/19/2016 461A  337A  391A  
01/20/2016 353A  290A  331A  
01/21/2016 305A  257A  287A  
01/22/2016 309A  250A  277A  
01/23/2016 387A  309A  366A  

Explanation
  A  Approved for publication -- Processing and review completed.